Time;durP1;ratioP1;P1;durP2;ratioP2;P2;SDS_P1;SDS_P2;PMS_P1;PMS_P2;Temp;Humidity;BMP_temperature;BMP_pressure;BME280_temperature;BME280_humidity;BME280_pressure;Samples;Min_cycle;Max_cycle;Signal;HPM_P1;HPM_P2
2022/08/21 00:01:13;;;;;;;15.80;9.37;;;;;;;17.34;100.00;100722.19;5028017;28;20204;-74
2022/08/21 00:03:40;;;;;;;14.00;8.90;;;;;;;17.41;100.00;100722.69;5031072;28;20200;-74
2022/08/21 00:06:07;;;;;;;18.07;10.00;;;;;;;17.40;100.00;100719.22;5029631;28;20215;-74
2022/08/21 00:08:34;;;;;;;13.90;9.30;;;;;;;17.38;100.00;100717.59;5029279;28;20287;-74
2022/08/21 00:11:02;;;;;;;19.23;10.80;;;;;;;17.36;100.00;100722.94;5028481;28;20739;-74
2022/08/21 00:13:28;;;;;;;18.20;9.93;;;;;;;17.39;100.00;100719.28;5026724;28;20227;-74
2022/08/21 00:15:55;;;;;;;16.17;9.17;;;;;;;17.40;100.00;100718.38;5029898;28;20713;-74
2022/08/21 00:18:21;;;;;;;16.13;9.97;;;;;;;17.44;100.00;100721.69;5030062;28;20298;-74
2022/08/21 00:20:48;;;;;;;14.87;9.33;;;;;;;17.45;100.00;100718.09;5029086;28;20214;-74
2022/08/21 00:23:15;;;;;;;16.87;9.60;;;;;;;17.43;100.00;100718.22;5024313;28;20206;-74
2022/08/21 00:25:44;;;;;;;14.17;9.30;;;;;;;17.42;100.00;100721.78;5028940;28;20571;-74
2022/08/21 00:28:13;;;;;;;14.40;9.77;;;;;;;17.42;100.00;100724.41;5028599;28;20192;-74
2022/08/21 00:30:40;;;;;;;15.30;9.60;;;;;;;17.42;100.00;100724.41;5029491;28;20196;-74
2022/08/21 00:33:08;;;;;;;15.40;9.77;;;;;;;17.44;100.00;100719.06;5029178;28;20203;-74
2022/08/21 00:35:37;;;;;;;13.60;9.17;;;;;;;17.43;100.00;100718.22;5027782;28;20246;-74
2022/08/21 00:38:07;;;;;;;19.17;10.33;;;;;;;17.41;100.00;100717.41;5029355;28;20270;-74
2022/08/21 00:40:37;;;;;;;15.57;9.97;;;;;;;17.41;100.00;100715.66;5029244;28;20206;-74
2022/08/21 00:43:06;;;;;;;16.10;10.30;;;;;;;17.45;100.00;100720.75;5028904;28;20295;-73
2022/08/21 00:45:35;;;;;;;12.67;9.37;;;;;;;17.42;100.00;100717.34;5029768;28;20228;-73
2022/08/21 00:48:02;;;;;;;13.03;8.97;;;;;;;17.41;100.00;100720.94;5028072;28;20199;-73
2022/08/21 00:50:34;;;;;;;16.27;8.97;;;;;;;17.42;100.00;100713.84;5028794;28;20196;-73
2022/08/21 00:53:02;;;;;;;14.77;9.30;;;;;;;17.41;100.00;100718.28;5029063;28;20206;-73
2022/08/21 00:55:30;;;;;;;15.10;9.33;;;;;;;17.44;100.00;100719.06;5027616;28;20600;-73
2022/08/21 00:58:00;;;;;;;15.23;9.53;;;;;;;17.44;100.00;100725.16;5028575;28;20565;-73
2022/08/21 01:00:30;;;;;;;13.53;9.17;;;;;;;17.43;100.00;100723.47;5027302;28;20222;-73
2022/08/21 01:02:59;;;;;;;15.10;10.27;;;;;;;17.46;100.00;100722.47;5027933;28;20203;-73
2022/08/21 01:05:26;;;;;;;16.67;9.63;;;;;;;17.45;100.00;100716.34;5027693;28;20233;-73
2022/08/21 01:07:53;;;;;;;15.13;10.10;;;;;;;17.47;100.00;100716.25;5026717;28;20238;-73
2022/08/21 01:10:20;;;;;;;14.30;9.80;;;;;;;17.44;100.00;100724.31;5028452;28;20724;-73
2022/08/21 01:12:47;;;;;;;15.33;9.10;;;;;;;17.44;100.00;100714.63;5023980;28;20200;-73
2022/08/21 01:15:15;;;;;;;15.23;9.43;;;;;;;17.44;100.00;100719.06;5028498;28;20219;-73
2022/08/21 01:17:41;;;;;;;15.07;9.57;;;;;;;17.43;100.00;100718.22;5028402;28;20620;-73
2022/08/21 01:20:12;;;;;;;15.33;9.57;;;;;;;17.42;100.00;100716.50;5026336;28;20216;-73
2022/08/21 01:22:39;;;;;;;14.40;9.00;;;;;;;17.46;100.00;100725.94;5026046;28;20234;-73
2022/08/21 01:25:09;;;;;;;14.93;9.77;;;;;;;17.45;100.00;100724.25;5026644;28;20216;-73
2022/08/21 01:27:35;;;;;;;16.13;9.97;;;;;;;17.46;100.00;100718.03;5029865;28;20204;-73
2022/08/21 01:30:10;;;;;;;14.80;9.50;;;;;;;17.47;100.00;100721.53;5023809;28;20227;-73
2022/08/21 01:32:37;;;;;;;16.00;10.13;;;;;;;17.47;100.00;100721.53;5021047;28;20198;-74
2022/08/21 01:35:05;;;;;;;16.53;10.17;;;;;;;17.48;100.00;100729.34;5027742;28;20215;-73
2022/08/21 01:37:31;;;;;;;15.87;9.93;;;;;;;17.46;100.00;100725.09;5028237;28;20207;-73
2022/08/21 01:39:59;;;;;;;14.53;9.43;;;;;;;17.46;100.00;100725.94;5027944;28;20620;-73
2022/08/21 01:42:26;;;;;;;17.67;10.57;;;;;;;17.45;100.00;100724.25;5026738;28;20583;-73
2022/08/21 01:44:53;;;;;;;16.90;9.77;;;;;;;17.47;100.00;100724.16;5025630;28;20228;-73
2022/08/21 01:47:19;;;;;;;13.60;9.40;;;;;;;17.47;100.00;100721.53;5027020;28;20261;-73
2022/08/21 01:49:46;;;;;;;17.17;10.50;;;;;;;17.48;100.00;100717.94;5030657;28;20554;-73
2022/08/21 01:52:13;;;;;;;17.20;10.00;;;;;;;17.47;100.00;100724.16;5028066;28;20204;-73
2022/08/21 01:54:39;;;;;;;14.37;9.57;;;;;;;17.48;100.00;100713.53;5027385;28;20255;-73
2022/08/21 01:57:08;;;;;;;13.13;9.57;;;;;;;17.47;100.00;100719.75;5027640;28;20203;-73
2022/08/21 01:59:36;;;;;;;16.30;10.50;;;;;;;17.48;100.00;100720.59;5023940;28;20212;-73
2022/08/21 02:02:03;;;;;;;15.67;9.50;;;;;;;17.46;100.00;100719.81;5026057;28;20363;-73
2022/08/21 02:04:30;;;;;;;15.30;9.23;;;;;;;17.46;100.00;100723.28;5026492;28;20593;-73
2022/08/21 02:06:57;;;;;;;18.77;10.17;;;;;;;17.44;100.00;100719.06;5026966;28;20200;-73
2022/08/21 02:09:23;;;;;;;13.43;9.20;;;;;;;17.42;100.00;100725.25;5030011;28;20209;-73
2022/08/21 02:11:49;;;;;;;16.63;10.07;;;;;;;17.37;100.00;100731.69;5030497;28;20195;-73
2022/08/21 02:14:18;;;;;;;14.67;10.03;;;;;;;17.35;100.00;100733.56;5027952;28;20740;-73
2022/08/21 02:16:45;;;;;;;16.17;10.40;;;;;;;17.34;100.00;100735.38;5027033;28;20195;-73
2022/08/21 02:19:14;;;;;;;18.40;9.57;;;;;;;17.35;100.00;100730.94;5030705;28;20215;-73
2022/08/21 02:21:40;;;;;;;16.00;9.93;;;;;;;17.34;100.00;100737.13;5049156;28;20687;-73
2022/08/21 02:24:07;;;;;;;17.97;10.57;;;;;;;17.33;100.00;100730.16;5027355;28;20200;-73
2022/08/21 02:26:34;;;;;;;14.60;9.70;;;;;;;17.26;100.00;100732.28;5027776;28;20222;-73
2022/08/21 02:29:00;;;;;;;15.97;9.73;;;;;;;17.25;100.00;100740.25;5026894;28;20200;-73
2022/08/21 02:31:28;;;;;;;15.63;9.87;;;;;;;17.22;100.00;100743.91;5027520;28;20207;-73
2022/08/21 02:33:55;;;;;;;13.43;9.20;;;;;;;17.21;100.00;100742.19;5026933;28;20192;-73
2022/08/21 02:36:22;;;;;;;16.33;9.73;;;;;;;17.22;100.00;100742.13;5027546;28;20222;-73
2022/08/21 02:38:49;;;;;;;12.13;9.13;;;;;;;17.19;100.00;100731.72;5018177;28;20275;-73
2022/08/21 02:41:18;;;;;;;13.67;9.17;;;;;;;17.19;100.00;100733.53;5030743;28;20222;-73
2022/08/21 02:43:45;;;;;;;14.03;9.10;;;;;;;17.17;100.00;100738.88;5031217;28;20200;-73
2022/08/21 02:46:13;;;;;;;14.17;9.43;;;;;;;17.15;100.00;100743.38;5030315;28;20230;-73
2022/08/21 02:48:42;;;;;;;16.60;10.43;;;;;;;17.14;100.00;100738.19;5033450;28;20210;-73
2022/08/21 02:51:12;;;;;;;14.97;9.27;;;;;;;17.12;100.00;100738.25;5030721;28;20202;-73
2022/08/21 02:53:38;;;;;;;13.17;8.40;;;;;;;17.11;100.00;100733.06;5031019;28;20198;-73
2022/08/21 02:56:09;;;;;;;12.97;8.70;;;;;;;17.12;100.00;100738.25;5030906;28;20226;-73
2022/08/21 02:58:40;;;;;;;12.93;9.07;;;;;;;17.11;100.00;100736.53;5027134;28;20207;-73
2022/08/21 03:01:09;;;;;;;13.80;8.93;;;;;;;17.08;100.00;100734.09;5029815;28;20222;-73
2022/08/21 03:03:37;;;;;;;12.80;8.70;;;;;;;17.08;100.00;100733.22;5030719;28;20196;-73
2022/08/21 03:06:06;;;;;;;13.83;8.60;;;;;;;17.09;100.00;100734.94;5030020;28;20218;-73
2022/08/21 03:08:32;;;;;;;13.43;9.13;;;;;;;17.07;100.00;100734.16;5030507;28;20204;-73
2022/08/21 03:11:00;;;;;;;14.03;9.40;;;;;;;17.05;100.00;100730.75;5030205;28;20562;-73
2022/08/21 03:13:27;;;;;;;11.23;8.23;;;;;;;17.04;100.00;100729.88;5030134;28;20710;-73
2022/08/21 03:15:55;;;;;;;13.53;9.63;;;;;;;17.01;100.00;100737.97;5030013;28;20221;-73
2022/08/21 03:18:21;;;;;;;13.57;8.33;;;;;;;16.94;100.00;100726.88;5030336;28;20258;-73
2022/08/21 03:20:48;;;;;;;14.20;8.43;;;;;;;16.91;100.00;100732.31;5030573;28;20212;-73
2022/08/21 03:23:17;;;;;;;10.93;7.87;;;;;;;16.90;100.00;100732.38;5028408;28;20203;-73
2022/08/21 03:25:44;;;;;;;12.50;7.57;;;;;;;16.84;100.00;100729.13;5028087;28;20227;-73
2022/08/21 03:28:13;;;;;;;10.53;7.60;;;;;;;16.83;100.00;100722.16;5029828;28;20192;-73
2022/08/21 03:30:41;;;;;;;10.00;6.60;;;;;;;16.83;100.00;100716.91;5029770;28;20204;-72
2022/08/21 03:33:07;;;;;;;10.33;7.17;;;;;;;16.81;100.00;100710.81;5030378;28;20306;-72
2022/08/21 03:35:34;;;;;;;12.93;7.57;;;;;;;16.83;100.00;100706.38;5028819;28;20235;-72
2022/08/21 03:38:00;;;;;;;11.30;7.47;;;;;;;16.87;100.00;100707.06;5030194;28;20207;-73
2022/08/21 03:40:28;;;;;;;12.33;7.20;;;;;;;16.86;100.00;100705.34;5030105;28;20596;-73
2022/08/21 03:42:54;;;;;;;8.80;6.60;;;;;;;16.84;100.00;100702.78;5030318;28;20207;-72
2022/08/21 03:45:21;;;;;;;11.23;6.53;;;;;;;16.87;100.00;100706.19;5029954;28;20231;-73
2022/08/21 03:47:53;;;;;;;9.20;5.80;;;;;;;16.86;100.00;100705.34;5028929;28;20223;-73
2022/08/21 03:50:19;;;;;;;8.27;6.10;;;;;;;16.86;100.00;100707.97;5029670;28;20821;-73
2022/08/21 03:52:45;;;;;;;8.47;5.90;;;;;;;16.86;100.00;100707.13;5030051;28;20200;-73
2022/08/21 03:55:12;;;;;;;8.23;6.23;;;;;;;16.88;100.00;100707.91;5029683;28;20223;-72
2022/08/21 03:57:39;;;;;;;8.43;6.60;;;;;;;16.86;100.00;100707.97;5029566;28;20204;-73
2022/08/21 04:00:11;;;;;;;10.77;7.57;;;;;;;16.86;100.00;100712.41;5029724;28;20208;-72
2022/08/21 04:02:37;;;;;;;9.50;6.53;;;;;;;16.83;100.00;100718.63;5029637;28;20208;-73
2022/08/21 04:05:05;;;;;;;9.70;6.40;;;;;;;16.81;100.00;100720.50;5022897;28;20223;-73
2022/08/21 04:07:32;;;;;;;10.70;6.53;;;;;;;16.81;100.00;100720.50;5023638;28;20208;-73
2022/08/21 04:09:58;;;;;;;9.10;6.83;;;;;;;16.83;100.00;100730.06;5026441;28;20207;-72
2022/08/21 04:12:25;;;;;;;7.13;5.63;;;;;;;16.82;100.00;100719.56;5029585;28;20204;-73
2022/08/21 04:14:52;;;;;;;8.80;6.43;;;;;;;16.82;100.00;100722.22;5027588;28;20224;-73
2022/08/21 04:17:19;;;;;;;7.03;5.40;;;;;;;16.83;100.00;100723.91;5029421;28;20200;-73
2022/08/21 04:19:46;;;;;;;7.97;5.70;;;;;;;16.80;100.00;100727.56;5029678;28;20547;-73
2022/08/21 04:22:13;;;;;;;9.20;5.87;;;;;;;16.82;100.00;100727.47;5015742;28;20199;-73
2022/08/21 04:24:39;;;;;;;8.37;6.40;;;;;;;16.81;100.00;100729.25;5027829;28;20220;-73
2022/08/21 04:27:05;;;;;;;8.10;6.20;;;;;;;16.81;100.00;100733.66;5029272;28;20188;-73
2022/08/21 04:29:32;;;;;;;9.10;6.43;;;;;;;16.81;100.00;100733.66;5029394;28;20203;-73
2022/08/21 04:31:59;;;;;;;10.73;6.50;;;;;;;16.79;100.00;100728.47;5027985;28;20211;-73
2022/08/21 04:34:26;;;;;;;7.60;5.97;;;;;;;16.81;100.00;100731.03;5029348;28;20224;-73
2022/08/21 04:36:52;;;;;;;13.97;7.20;;;;;;;16.76;100.00;100733.03;5028242;28;20188;-73
2022/08/21 04:39:19;;;;;;;10.13;6.33;;;;;;;16.78;100.00;100734.69;5029148;28;20206;-73
2022/08/21 04:41:45;;;;;;;8.63;6.07;;;;;;;16.77;100.00;100734.75;5027398;28;20234;-73
2022/08/21 04:44:12;;;;;;;9.57;6.70;;;;;;;16.78;100.00;100732.03;5028868;28;20192;-72
2022/08/21 04:46:38;;;;;;;8.53;6.57;;;;;;;16.77;100.00;100740.03;5029289;28;20568;-73
2022/08/21 04:49:06;;;;;;;7.57;5.70;;;;;;;16.79;100.00;100741.63;5029202;28;20196;-73
2022/08/21 04:51:36;;;;;;;7.70;6.27;;;;;;;16.77;100.00;100738.22;5017141;28;20270;-73
2022/08/21 04:54:09;;;;;;;9.30;6.73;;;;;;;16.81;100.00;100744.19;5022616;28;20200;-73
2022/08/21 04:56:39;;;;;;;9.80;6.80;;;;;;;16.84;100.00;100744.91;5028207;28;20207;-73
2022/08/21 04:59:12;;;;;;;10.87;7.33;;;;;;;16.86;100.00;100751.91;5026935;28;20196;-73
2022/08/21 05:01:40;;;;;;;11.43;7.13;;;;;;;16.87;100.00;100758.84;5028419;28;20223;-73
2022/08/21 05:04:11;;;;;;;13.23;7.83;;;;;;;16.91;100.00;100749.91;5023844;28;20203;-73
2022/08/21 05:06:40;;;;;;;10.70;7.27;;;;;;;16.91;100.00;100750.75;5028532;28;20557;-73
2022/08/21 05:09:09;;;;;;;10.17;7.73;;;;;;;16.85;100.00;100756.31;5027643;28;20303;-73
2022/08/21 05:11:36;;;;;;;13.70;8.30;;;;;;;16.84;100.00;100755.44;5027181;28;20210;-72
2022/08/21 05:14:03;;;;;;;12.47;8.20;;;;;;;16.90;100.00;100758.72;5027781;28;20246;-73
2022/08/21 05:16:29;;;;;;;12.23;7.83;;;;;;;16.92;100.00;100759.47;5021594;28;20566;-73
2022/08/21 05:18:56;;;;;;;13.03;8.10;;;;;;;16.95;100.00;100767.22;5027994;28;20215;-73
2022/08/21 05:21:24;;;;;;;9.17;7.00;;;;;;;16.94;100.00;100765.50;5028424;28;20698;-73
2022/08/21 05:23:50;;;;;;;14.40;9.03;;;;;;;16.95;100.00;100761.97;5027981;28;20572;-73
2022/08/21 05:26:16;;;;;;;13.90;8.90;;;;;;;16.95;100.00;100767.22;5025425;28;20216;-72
2022/08/21 05:28:43;;;;;;;12.47;8.40;;;;;;;16.99;100.00;100776.66;5027658;28;20196;-72
2022/08/21 05:31:10;;;;;;;10.97;8.20;;;;;;;17.03;100.00;100770.34;5028361;28;20249;-72
2022/08/21 05:33:36;;;;;;;11.70;8.63;;;;;;;17.02;100.00;100774.72;5027988;28;20585;-72
2022/08/21 05:36:03;;;;;;;12.87;9.23;;;;;;;17.06;100.00;100771.94;5027614;28;20230;-73
2022/08/21 05:38:31;;;;;;;14.47;8.93;;;;;;;17.10;100.00;100776.16;5027415;28;20223;-73
2022/08/21 05:40:58;;;;;;;16.27;8.93;;;;;;;17.12;100.00;100772.50;5028019;28;20704;-73
2022/08/21 05:43:24;;;;;;;12.53;8.33;;;;;;;17.14;100.00;100775.91;5028504;28;20208;-73
2022/08/21 05:45:51;;;;;;;11.73;8.47;;;;;;;17.16;100.00;100771.41;5027827;28;20232;-72
2022/08/21 05:48:19;;;;;;;14.10;8.60;;;;;;;17.21;100.00;100777.28;5027804;28;20203;-73
2022/08/21 05:50:49;;;;;;;13.10;8.47;;;;;;;17.27;100.00;100780.53;5027658;28;20641;-73
2022/08/21 05:53:16;;;;;;;11.57;8.13;;;;;;;17.36;100.00;100787.97;5046006;28;20199;-73
2022/08/21 05:55:45;;;;;;;11.70;8.47;;;;;;;17.37;100.00;100787.88;5027691;28;20223;-73
2022/08/21 05:58:12;;;;;;;14.00;8.37;;;;;;;17.39;100.00;100785.16;5027242;28;20227;-73
2022/08/21 06:00:38;;;;;;;15.07;8.90;;;;;;;17.42;100.00;100787.66;5028069;28;20219;-73
2022/08/21 06:03:04;;;;;;;13.30;8.60;;;;;;;17.50;100.00;100788.13;5020656;28;20204;-73
2022/08/21 06:05:31;;;;;;;12.70;8.47;;;;;;;17.49;100.00;100780.28;5027440;28;20223;-73
2022/08/21 06:07:58;;;;;;;11.27;7.67;;;;;;;17.56;100.00;100777.22;5025733;28;20203;-73
2022/08/21 06:10:24;;;;;;;12.90;8.33;;;;;;;17.62;100.00;100783.97;5027870;28;20275;-73
2022/08/21 06:12:55;;;;;;;16.20;8.63;;;;;;;17.64;100.00;100781.25;5031939;28;20652;-73
2022/08/21 06:15:21;;;;;;;14.43;9.30;;;;;;;17.69;100.00;100779.22;5030824;28;20601;-73
2022/08/21 06:17:48;;;;;;;10.80;7.97;;;;;;;17.66;100.00;100782.88;5031715;28;20601;-73
2022/08/21 06:20:14;;;;;;;13.03;8.63;;;;;;;17.69;100.00;100777.41;5030510;28;20200;-73
2022/08/21 06:22:41;;;;;;;11.47;8.47;;;;;;;17.73;100.00;100768.44;5031128;28;20200;-73
2022/08/21 06:25:09;;;;;;;13.27;8.83;;;;;;;17.74;100.00;100770.13;5036035;28;20219;-73
2022/08/21 06:27:35;;;;;;;12.00;8.33;;;;;;;17.83;100.00;100774.03;5031184;28;20196;-73
2022/08/21 06:30:03;;;;;;;11.73;7.77;;;;;;;17.79;100.00;100772.53;5028661;28;20200;-73
2022/08/21 06:32:30;;;;;;;11.07;7.57;;;;;;;17.82;100.00;100763.56;5027035;28;20196;-73
2022/08/21 06:34:57;;;;;;;10.80;7.67;;;;;;;17.68;100.00;100759.91;5027394;28;20322;-73
2022/08/21 06:37:23;;;;;;;9.27;7.07;;;;;;;17.77;100.00;100769.97;5028170;28;20196;-73
2022/08/21 06:39:50;;;;;;;11.43;7.17;;;;;;;17.69;100.00;100761.59;5030132;28;20543;-73
2022/08/21 06:42:17;;;;;;;8.77;6.83;;;;;;;17.76;100.00;100755.09;5034413;28;20722;-73
2022/08/21 06:44:44;;;;;;;10.00;6.83;;;;;;;17.78;100.00;100760.25;5028701;28;20224;-74
2022/08/21 06:47:12;;;;;;;10.17;6.23;;;;;;;17.79;100.00;100748.78;5023288;28;20196;-74
2022/08/21 06:49:39;;;;;;;8.07;6.60;;;;;;;17.84;100.00;100753.81;5024214;28;20203;-74
2022/08/21 06:52:09;;;;;;;8.67;6.50;;;;;;;17.68;100.00;100759.06;5028094;28;20704;-74
2022/08/21 06:54:36;;;;;;;8.57;6.47;;;;;;;17.69;100.00;100755.50;5022897;28;20211;-74
2022/08/21 06:57:03;;;;;;;8.03;5.97;;;;;;;17.72;100.00;100750.91;5028862;28;20206;-74
2022/08/21 06:59:29;;;;;;;9.07;5.47;;;;;;;17.76;100.00;100762.13;5023323;28;20199;-74
2022/08/21 07:01:56;;;;;;;8.47;5.53;;;;;;;17.69;100.00;100760.75;5030755;28;20700;-74
2022/08/21 07:04:24;;;;;;;6.57;5.00;;;;;;;17.61;100.00;100769.09;5030046;28;20226;-74
2022/08/21 07:06:50;;;;;;;7.50;4.80;;;;;;;17.69;100.00;100760.75;5028946;28;20683;-74
2022/08/21 07:09:17;;;;;;;6.93;5.30;;;;;;;17.71;100.00;100764.16;5026168;28;20196;-74
2022/08/21 07:11:47;;;;;;;11.10;5.80;;;;;;;17.71;100.00;100766.78;5029085;28;20203;-74
2022/08/21 07:14:14;;;;;;;7.50;5.50;;;;;;;17.71;100.00;100770.31;5027759;28;20204;-74
2022/08/21 07:16:40;;;;;;;7.00;4.93;;;;;;;17.70;100.00;100765.13;5026342;28;20211;-74
2022/08/21 07:19:06;;;;;;;8.33;5.63;;;;;;;17.72;100.00;100763.25;5027057;28;20196;-74
2022/08/21 07:21:34;;;;;;;7.70;4.97;;;;;;;17.76;100.00;100762.13;5028234;28;20216;-74
2022/08/21 07:24:01;;;;;;;6.17;4.70;;;;;;;17.69;100.00;100760.75;5028476;28;20587;-74
2022/08/21 07:26:27;;;;;;;8.40;5.23;;;;;;;17.66;100.00;100767.06;5028900;28;20203;-74
2022/08/21 07:28:54;;;;;;;6.27;4.93;;;;;;;17.74;100.00;100770.13;5027941;28;20199;-74
2022/08/21 07:31:23;;;;;;;7.77;4.80;;;;;;;17.76;100.00;100770.03;5027337;28;20204;-74
2022/08/21 07:33:50;;;;;;;6.63;4.77;;;;;;;17.63;100.00;100776.94;5027166;28;20200;-74
2022/08/21 07:36:17;;;;;;;6.63;4.80;;;;;;;17.72;100.00;100776.44;5027869;28;20224;-74
2022/08/21 07:38:45;;;;;;;6.80;4.70;;;;;;;17.76;100.00;100775.31;5028685;28;20192;-74
2022/08/21 07:41:16;;;;;;;7.73;5.17;;;;;;;17.78;100.00;100765.53;5029778;28;20212;-74
2022/08/21 07:43:43;;;;;;;6.43;5.13;;;;;;;17.72;100.00;100779.91;5029277;28;20808;-74
2022/08/21 07:46:09;;;;;;;9.90;4.90;;;;;;;17.67;100.00;100768.75;5028216;28;20238;-74
2022/08/21 07:48:37;;;;;;;9.10;4.70;;;;;;;17.59;100.00;100758.63;5027621;28;20559;-74
2022/08/21 07:51:07;;;;;;;7.80;5.33;;;;;;;17.72;100.00;100769.34;5028254;28;20222;-74
2022/08/21 07:53:33;;;;;;;7.63;5.30;;;;;;;17.83;100.00;100768.78;5031586;28;20196;-74
2022/08/21 07:56:01;;;;;;;7.87;5.30;;;;;;;17.94;100.00;100766.44;5028615;28;20216;-74
2022/08/21 07:58:28;;;;;;;6.23;5.20;;;;;;;17.96;100.00;100758.47;5036305;28;20196;-74
2022/08/21 08:00:54;;;;;;;6.73;5.47;;;;;;;18.06;100.00;100758.78;5028951;28;20206;-74
2022/08/21 08:03:21;;;;;;;12.07;6.00;;;;;;;18.10;100.00;100753.28;5026031;28;20202;-73
2022/08/21 08:05:47;;;;;;;8.77;5.70;;;;;;;18.24;100.00;100757.78;5025150;28;20226;-73
2022/08/21 08:08:14;;;;;;;7.53;5.40;;;;;;;18.30;100.00;100757.41;5022620;28;20203;-73
2022/08/21 08:10:41;;;;;;;7.40;6.00;;;;;;;18.37;100.00;100765.84;5025293;28;20192;-73
2022/08/21 08:13:09;;;;;;;7.87;5.40;;;;;;;18.47;100.00;100764.38;5025420;28;20565;-73
2022/08/21 08:15:37;;;;;;;7.23;5.33;;;;;;;18.49;100.00;100772.22;5024370;28;20226;-73
2022/08/21 08:18:04;;;;;;;6.37;5.23;;;;;;;18.62;100.00;100767.09;5026794;28;20203;-73
2022/08/21 08:20:30;;;;;;;7.17;4.60;;;;;;;18.61;100.00;100771.53;5023435;28;20202;-75
2022/08/21 08:22:57;;;;;;;7.60;4.60;;;;;;;18.55;100.00;100762.13;5027326;28;20208;-73
2022/08/21 08:25:25;;;;;;;4.60;4.20;;;;;;;18.81;100.00;100773.00;5029091;28;20238;-73
2022/08/21 08:27:52;;;;;;;6.53;4.50;;;;;;;18.82;100.00;100781.78;5027706;28;20204;-74
2022/08/21 08:30:21;;;;;;;5.23;3.57;;;;;;;18.68;100.00;100782.56;5029611;28;20479;-76
2022/08/21 08:32:49;;;;;;;6.40;3.40;;;;;;;18.77;100.00;100776.78;5030050;28;20266;-75
2022/08/21 08:35:16;;;;;;;4.47;3.40;;;;;;;18.80;100.00;100783.66;5028710;28;20558;-75
2022/08/21 08:37:45;;;;;;;5.93;2.70;;;;;;;18.92;100.00;100786.44;5027693;28;20576;-75
2022/08/21 08:40:14;;;;;;;4.10;2.47;;;;;;;18.82;100.00;100787.09;5024049;28;20253;-76
2022/08/21 08:42:41;;;;;;;3.47;2.40;;;;;;;18.87;100.00;100785.91;5033635;28;20211;-75
2022/08/21 08:45:11;;;;;;;3.03;2.40;;;;;;;19.00;100.00;100785.19;5030129;28;20233;-75
2022/08/21 08:47:42;;;;;;;2.67;2.20;;;;;;;18.88;100.00;100787.59;5030399;28;20200;-76
2022/08/21 08:50:14;;;;;;;3.17;1.90;;;;;;;18.95;100.00;100776.66;5028209;28;20204;-75
2022/08/21 08:52:44;;;;;;;3.60;1.87;;;;;;;18.90;100.00;100782.22;5029275;28;20250;-75
2022/08/21 08:55:15;;;;;;;3.40;2.00;;;;;;;18.85;100.00;100781.63;5023047;28;20271;-75
2022/08/21 08:57:45;;;;;;;3.73;1.97;;;;;;;18.97;100.00;100775.63;5029816;28;20203;-75
2022/08/21 09:00:15;;;;;;;2.67;2.10;;;;;;;18.96;100.00;100783.63;5025197;28;20192;-75
2022/08/21 09:02:45;;;;;;;3.70;2.27;;;;;;;19.05;100.00;100776.03;5029054;28;20211;-77
2022/08/21 09:05:22;;;;;;;3.47;1.77;;;;;;;19.21;100.00;100778.59;5025042;28;20791;-75
2022/08/21 09:08:00;;;;;;;4.07;1.87;;;;;;;19.22;100.00;100780.28;5026926;28;20706;-75
2022/08/21 09:10:37;;;;;;;2.87;1.83;;;;;;;19.21;100.00;100788.34;5018190;28;20200;-72
2022/08/21 09:13:13;;;;;;;3.87;2.00;;;;;;;19.27;100.00;100791.44;5026316;28;20686;-72
2022/08/21 09:15:51;;;;;;;3.33;2.13;;;;;;;19.16;100.00;100787.75;5028049;28;20258;-72
2022/08/21 09:18:34;;;;;;;2.43;1.73;;;;;;;19.27;100.00;100780.03;5020888;28;20254;-72
2022/08/21 09:21:13;;;;;;;2.03;1.67;;;;;;;19.33;100.00;100790.25;5027715;28;20283;-73
2022/08/21 09:23:47;;;;;;;2.63;1.70;;;;;;;19.32;100.00;100785.88;5020824;28;20559;-73
2022/08/21 09:26:16;;;;;;;4.17;1.80;;;;;;;19.41;100.00;100790.63;5026842;28;20310;-73
2022/08/21 09:28:43;;;;;;;4.23;1.80;;;;;;;19.50;100.00;100786.56;5026846;28;20543;-73
2022/08/21 09:31:16;;;;;;;4.30;1.40;;;;;;;19.51;100.00;100777.69;5028223;28;20248;-73
2022/08/21 09:33:44;;;;;;;3.33;1.63;;;;;;;19.63;100.00;100771.66;5024858;28;20368;-73
2022/08/21 09:36:11;;;;;;;3.07;1.67;;;;;;;19.61;100.00;100776.19;5027257;28;20242;-73
2022/08/21 09:38:38;;;;;;;2.27;1.60;;;;;;;19.73;100.00;100771.06;5027519;28;20206;-73
2022/08/21 09:41:08;;;;;;;3.47;1.87;;;;;;;19.72;100.00;100775.53;5027526;28;20211;-73
2022/08/21 09:43:35;;;;;;;2.70;1.63;;;;;;;19.71;100.00;100776.47;5026290;28;20318;-73
2022/08/21 09:46:09;;;;;;;3.77;2.00;;;;;;;19.78;100.00;100774.31;5019154;28;20234;-73
2022/08/21 09:48:47;;;;;;;4.70;1.93;;;;;;;19.85;100.00;100775.63;5038589;28;20774;-74
2022/08/21 09:51:21;;;;;;;4.90;1.50;;;;;;;19.93;100.00;100777.78;5022139;28;20212;-74
2022/08/21 09:53:51;;;;;;;1.97;1.37;;;;;;;20.10;100.00;100774.91;5029806;28;20204;-73
2022/08/21 09:59:26;;;;;;;3.67;1.50;;;;;;;20.36;100.00;100781.19;5024094;28;20790;-73
2022/08/21 10:01:54;;;;;;;4.13;1.50;;;;;;;20.30;100.00;100784.25;5022664;28;20220;-73
2022/08/21 10:04:25;;;;;;;4.87;1.90;;;;;;;20.50;100.00;100775.00;5026695;28;20293;-73
2022/08/21 10:06:52;;;;;;;2.83;1.60;;;;;;;20.50;100.00;100775.00;5026127;28;20203;-72
2022/08/21 10:09:20;;;;;;;2.60;1.70;;;;;;;20.68;100.00;100774.78;5026596;28;20207;-71
2022/08/21 10:11:55;;;;;;;2.93;1.40;;;;;;;20.78;100.00;100771.41;5019890;28;20206;-73
2022/08/21 10:14:38;;;;;;;4.30;1.60;;;;;;;20.66;100.00;100785.47;5040587;28;20232;-72
2022/08/21 10:17:14;;;;;;;3.80;1.50;;;;;;;20.50;100.00;100779.47;5027713;28;20568;-70
2022/08/21 10:19:53;;;;;;;3.57;1.77;;;;;;;20.64;100.00;100784.72;5026878;28;20203;-70
2022/08/21 10:22:30;;;;;;;2.63;1.33;;;;;;;20.76;100.00;100786.56;5025260;28;20230;-70
2022/08/21 10:25:06;;;;;;;3.63;1.50;;;;;;;20.65;100.00;100782.91;5031010;28;20225;-71
2022/08/21 10:27:39;;;;;;;1.93;1.47;;;;;;;20.48;100.00;100776.06;5021044;28;20692;-71
2022/08/21 10:30:10;;;;;;;5.30;1.50;;;;;;;20.58;100.00;100774.53;5026492;28;20569;-70
2022/08/21 10:32:53;;;;;;;2.13;1.33;;;;;;;20.49;100.00;100781.28;5018606;28;20205;-70
2022/08/21 10:35:27;;;;;;;1.63;1.40;;;;;;;20.43;100.00;100779.84;5021034;28;20221;-71
2022/08/21 10:38:17;;;;;;;3.33;1.30;;;;;;;20.47;100.00;100780.50;5023975;28;20757;-71
2022/08/21 10:40:57;;;;;;;2.10;1.60;;;;;;;20.50;100.00;100775.00;5021255;28;20223;-73
2022/08/21 10:43:36;;;;;;;2.70;1.47;;;;;;;20.51;100.00;100768.78;5030362;28;20622;-71
2022/08/21 10:46:14;;;;;;;2.97;1.47;;;;;;;20.36;100.00;100781.19;5026391;28;20226;-72
2022/08/21 10:48:47;;;;;;;4.10;1.40;;;;;;;20.37;100.00;100769.66;5029649;28;20206;-72
2022/08/21 10:51:21;;;;;;;7.97;1.77;;;;;;;20.32;100.00;100771.75;5028449;28;20215;-72
2022/08/21 10:53:57;;;;;;;3.03;1.40;;;;;;;20.32;100.00;100774.41;5023297;28;20584;-70
2022/08/21 10:56:25;;;;;;;2.30;1.60;;;;;;;20.42;100.00;100772.88;5030775;28;20223;-71
2022/08/21 10:59:06;;;;;;;3.80;1.60;;;;;;;20.56;100.00;100765.78;5030238;28;20200;-72
2022/08/21 11:01:38;;;;;;;2.70;1.80;;;;;;;20.66;100.00;100774.03;5030283;28;20657;-71
2022/08/21 11:04:12;;;;;;;3.90;1.33;;;;;;;20.74;100.00;100763.78;5026090;28;20215;-71
2022/08/21 11:06:46;;;;;;;2.53;1.83;;;;;;;20.74;100.00;100772.56;5029034;28;20278;-72
2022/08/21 11:09:17;;;;;;;3.40;1.80;;;;;;;20.58;100.00;100787.75;5028555;28;20573;-72
2022/08/21 11:11:50;;;;;;;3.47;1.60;;;;;;;20.53;100.00;100766.88;5028331;28;20200;-72
2022/08/21 11:14:25;;;;;;;4.67;1.70;;;;;;;20.45;100.00;100766.50;5027230;28;20208;-73
2022/08/21 11:16:57;;;;;;;3.80;1.50;;;;;;;20.53;100.00;100769.50;5029992;28;20214;-72
2022/08/21 11:19:29;;;;;;;2.10;1.60;;;;;;;20.55;100.00;100764.97;5028295;28;20235;-71
2022/08/21 11:22:12;;;;;;;5.50;1.73;;;;;;;20.45;100.00;100768.31;5029104;28;20683;-71